RORA(METAR)
04/25 16:00
RORA 250700Z 22010KT 9999 FEW006 SCT024 28/25 Q1007 RMK A2976=
戻る
トップページへ戻る
IMOC Co,.Ltd.